Time;durP1;ratioP1;P1;durP2;ratioP2;P2;SDS_P1;SDS_P2;PMS_P1;PMS_P2;Temp;Humidity;BMP_temperature;BMP_pressure;BME280_temperature;BME280_humidity;BME280_pressure;Samples;Min_cycle;Max_cycle;Signal;HPM_P1;HPM_P2
2023/07/01 00:01:59;;;;;;;;;;;;;;;16.75;100.00;99343.63;5053042;28;786;-56
2023/07/01 00:04:27;;;;;;;;;;;;;;;16.69;100.00;99349.00;5052961;28;837;-58
2023/07/01 00:06:55;;;;;;;;;;;;;;;16.66;100.00;99337.97;5053043;28;799;-58
2023/07/01 00:09:23;;;;;;;;;;;;;;;16.60;100.00;99335.00;5052802;28;794;-58
2023/07/01 00:11:51;;;;;;;;;;;;;;;16.60;100.00;99334.19;5052828;28;1420;-58
2023/07/01 00:14:18;;;;;;;;;;;;;;;16.64;100.00;99329.25;5052809;28;866;-58
2023/07/01 00:16:45;;;;;;;;;;;;;;;16.57;100.00;99332.31;5052790;28;853;-58
2023/07/01 00:19:13;;;;;;;;;;;;;;;16.50;100.00;99336.16;5052619;28;1948;-58
2023/07/01 00:21:40;;;;;;;;;;;;;;;16.42;100.00;99323.69;5052723;28;794;-58
2023/07/01 00:24:07;;;;;;;;;;;;;;;16.31;100.00;99327.66;5052642;28;888;-58
2023/07/01 00:26:35;;;;;;;;;;;;;;;16.19;100.00;99317.34;5052539;28;854;-57
2023/07/01 00:29:02;;;;;;;;;;;;;;;16.13;100.00;99324.75;5052485;28;890;-58
2023/07/01 00:31:30;;;;;;;;;;;;;;;16.04;100.00;99322.63;5052742;28;802;-58
2023/07/01 00:33:57;;;;;;;;;;;;;;;16.07;100.00;99321.75;5052414;28;834;-56
2023/07/01 00:36:25;;;;;;;;;;;;;;;16.13;100.00;99317.16;5052396;28;810;-58
2023/07/01 00:38:52;;;;;;;;;;;;;;;16.10;100.00;99320.06;5052298;28;1886;-58
2023/07/01 00:41:20;;;;;;;;;;;;;;;16.06;100.00;99306.22;5052258;28;818;-58
2023/07/01 00:43:47;;;;;;;;;;;;;;;16.03;100.00;99300.81;5052233;28;818;-58
2023/07/01 00:46:16;;;;;;;;;;;;;;;15.99;100.00;99312.06;5052464;28;802;-58
2023/07/01 00:48:43;;;;;;;;;;;;;;;16.01;100.00;99308.84;5068017;28;818;-58
2023/07/01 00:51:11;;;;;;;;;;;;;;;15.97;100.00;99297.81;5052444;28;839;-58
2023/07/01 00:53:39;;;;;;;;;;;;;;;15.95;100.00;99297.47;5052320;28;799;-58
2023/07/01 00:56:08;;;;;;;;;;;;;;;15.90;100.00;99301.63;5051937;28;852;-58
2023/07/01 00:58:35;;;;;;;;;;;;;;;15.80;100.00;99316.69;5052220;28;1890;-58
2023/07/01 01:01:05;;;;;;;;;;;;;;;15.67;100.00;99308.34;5052226;28;841;-58
2023/07/01 01:03:43;;;;;;;;;;;;;;;15.54;100.00;99307.59;5051981;28;865;-58
2023/07/01 01:06:16;;;;;;;;;;;;;;;15.43;100.00;99316.31;5051857;28;773;-58
2023/07/01 01:08:58;;;;;;;;;;;;;;;15.39;100.00;99303.72;5051873;28;877;-58
2023/07/01 01:11:27;;;;;;;;;;;;;;;15.43;100.00;99307.19;5051801;28;1197;-58
2023/07/01 01:13:55;;;;;;;;;;;;;;;15.49;100.00;99297.81;5052024;28;873;-58
2023/07/01 01:16:23;;;;;;;;;;;;;;;15.58;100.00;99301.91;5052084;28;814;-58
2023/07/01 01:18:50;;;;;;;;;;;;;;;15.61;100.00;99303.78;5052195;28;1914;-58
2023/07/01 01:21:20;;;;;;;;;;;;;;;15.59;100.00;99300.66;5051839;28;1060;-58
2023/07/01 01:23:52;;;;;;;;;;;;;;;15.55;100.00;99295.22;5051629;28;825;-58
2023/07/01 01:26:20;;;;;;;;;;;;;;;15.52;100.00;99298.91;5051473;28;837;-58
2023/07/01 01:28:47;;;;;;;;;;;;;;;15.51;100.00;99292.56;5051566;28;833;-58
2023/07/01 01:31:14;;;;;;;;;;;;;;;15.50;100.00;99295.78;5051800;28;893;-58
2023/07/01 01:33:41;;;;;;;;;;;;;;;15.47;100.00;99303.03;5051512;28;822;-58
2023/07/01 01:36:15;;;;;;;;;;;;;;;15.45;100.00;99296.38;5051446;28;857;-58
2023/07/01 01:38:43;;;;;;;;;;;;;;;15.42;100.00;99295.22;5051386;28;2012;-58
2023/07/01 01:41:19;;;;;;;;;;;;;;;15.43;100.00;99290.47;5051351;28;858;-58
2023/07/01 01:43:51;;;;;;;;;;;;;;;15.40;100.00;99285.78;5051473;28;864;-58
2023/07/01 01:46:19;;;;;;;;;;;;;;;15.36;100.00;99283.09;5056286;28;823;-58
2023/07/01 01:48:46;;;;;;;;;;;;;;;15.35;100.00;99275.22;5058248;28;799;-58
2023/07/01 01:51:15;;;;;;;;;;;;;;;15.35;100.00;99275.22;5057884;28;783;-58
2023/07/01 01:53:43;;;;;;;;;;;;;;;15.32;100.00;99277.66;5058027;28;901;-58
2023/07/01 01:56:11;;;;;;;;;;;;;;;15.26;100.00;99273.88;5058006;28;838;-58
2023/07/01 01:58:39;;;;;;;;;;;;;;;15.22;100.00;99284.34;5057807;28;1889;-58
2023/07/01 02:01:07;;;;;;;;;;;;;;;15.22;100.00;99278.00;5057953;28;909;-58
2023/07/01 02:03:35;;;;;;;;;;;;;;;15.21;100.00;99277.25;5057801;28;833;-58
2023/07/01 02:06:02;;;;;;;;;;;;;;;15.22;100.00;99286.38;5057866;28;811;-58
2023/07/01 02:08:30;;;;;;;;;;;;;;;15.25;100.00;99282.69;5057795;28;893;-58
2023/07/01 02:10:57;;;;;;;;;;;;;;;15.30;100.00;99274.56;5058495;28;962;-58
2023/07/01 02:13:25;;;;;;;;;;;;;;;15.35;100.00;99281.56;5057856;28;1259;-58
2023/07/01 02:15:53;;;;;;;;;;;;;;;15.38;100.00;99282.66;5058114;28;878;-58
2023/07/01 02:18:20;;;;;;;;;;;;;;;15.41;100.00;99287.34;5057956;28;876;-58
2023/07/01 02:20:47;;;;;;;;;;;;;;;15.43;100.00;99287.69;5057875;28;1985;-58
2023/07/01 02:23:14;;;;;;;;;;;;;;;15.44;100.00;99283.66;5057836;28;810;-58
2023/07/01 02:25:42;;;;;;;;;;;;;;;15.52;100.00;99293.34;5057678;28;847;-58
2023/07/01 02:28:09;;;;;;;;;;;;;;;15.53;100.00;99294.88;5057716;28;866;-58
2023/07/01 02:30:37;;;;;;;;;;;;;;;15.51;100.00;99294.53;5057562;28;858;-58
2023/07/01 02:33:04;;;;;;;;;;;;;;;15.51;100.00;99291.75;5057735;28;811;-58
2023/07/01 02:35:32;;;;;;;;;;;;;;;15.52;100.00;99284.97;5057458;28;902;-58
2023/07/01 02:38:00;;;;;;;;;;;;;;;15.51;100.00;99289.78;5057620;28;811;-58
2023/07/01 02:40:27;;;;;;;;;;;;;;;15.50;100.00;99290.22;5057475;28;1889;-58
2023/07/01 02:42:55;;;;;;;;;;;;;;;15.50;100.00;99293.00;5057863;28;827;-58
2023/07/01 02:45:23;;;;;;;;;;;;;;;15.51;100.00;99289.78;5057510;28;807;-58
2023/07/01 02:47:50;;;;;;;;;;;;;;;15.58;100.00;99299.91;5057413;28;864;-58
2023/07/01 02:50:18;;;;;;;;;;;;;;;15.66;100.00;99294.84;5057464;28;834;-58
2023/07/01 02:52:45;;;;;;;;;;;;;;;15.67;100.00;99297.19;5057633;28;866;-58
2023/07/01 02:55:12;;;;;;;;;;;;;;;15.67;100.00;99305.56;5057395;28;878;-58
2023/07/01 02:57:39;;;;;;;;;;;;;;;15.65;100.00;99298.88;5053856;28;850;-58
2023/07/01 03:00:10;;;;;;;;;;;;;;;15.62;100.00;99306.13;5054191;28;1881;-58
2023/07/01 03:02:37;;;;;;;;;;;;;;;15.63;100.00;99306.91;5036265;28;1177;-58
2023/07/01 03:05:05;;;;;;;;;;;;;;;15.63;100.00;99306.91;5054393;28;820;-58
2023/07/01 03:07:32;;;;;;;;;;;;;;;15.61;100.00;99304.56;5036196;28;1312;-58
2023/07/01 03:10:00;;;;;;;;;;;;;;;15.56;100.00;99299.56;5054016;28;1073;-58
2023/07/01 03:12:25;;;;;;;;;;;;;;;15.50;100.00;99296.56;5053686;28;1462;-58
2023/07/01 03:14:56;;;;;;;;;;;;;;;15.48;100.00;99303.81;5053944;28;830;-58
2023/07/01 03:17:24;;;;;;;;;;;;;;;15.49;100.00;99308.16;5036022;28;1206;-58
2023/07/01 03:19:52;;;;;;;;;;;;;;;15.57;100.00;99306.69;5053710;28;1909;-58
2023/07/01 03:22:19;;;;;;;;;;;;;;;15.64;100.00;99305.66;5054101;28;886;-58
2023/07/01 03:24:46;;;;;;;;;;;;;;;15.57;100.00;99298.31;5053635;28;806;-58
2023/07/01 03:27:13;;;;;;;;;;;;;;;15.49;100.00;99303.38;5053776;28;842;-58
2023/07/01 03:29:41;;;;;;;;;;;;;;;15.47;100.00;99302.28;5069150;28;1289;-58
2023/07/01 03:32:09;;;;;;;;;;;;;;;15.48;100.00;99312.16;5035554;28;1308;-58
2023/07/01 03:34:38;;;;;;;;;;;;;;;15.52;100.00;99305.25;5053670;28;869;-58
2023/07/01 03:37:06;;;;;;;;;;;;;;;15.63;100.00;99309.69;5053975;28;862;-58
2023/07/01 03:39:33;;;;;;;;;;;;;;;15.71;100.00;99305.44;5068876;28;1890;-58
2023/07/01 03:42:01;;;;;;;;;;;;;;;15.79;100.00;99303.19;5053494;28;869;-58
2023/07/01 03:44:29;;;;;;;;;;;;;;;15.85;100.00;99305.00;5053482;28;802;-58
2023/07/01 03:46:57;;;;;;;;;;;;;;;15.88;100.00;99308.88;5053337;28;925;-58
2023/07/01 03:49:25;;;;;;;;;;;;;;;15.88;100.00;99306.88;5053338;28;953;-58
2023/07/01 03:51:52;;;;;;;;;;;;;;;15.92;100.00;99304.72;5053278;28;830;-58
2023/07/01 03:54:19;;;;;;;;;;;;;;;15.98;100.00;99310.53;5053150;28;794;-58
2023/07/01 03:56:46;;;;;;;;;;;;;;;16.09;100.00;99296.97;5053228;28;818;-58
2023/07/01 03:59:13;;;;;;;;;;;;;;;16.24;100.00;99304.84;5053133;28;1881;-58
2023/07/01 04:01:39;;;;;;;;;;;;;;;16.42;100.00;99306.97;5052966;28;858;-58
2023/07/01 04:04:07;;;;;;;;;;;;;;;16.60;100.00;99306.28;5053287;28;850;-58
2023/07/01 04:06:34;;;;;;;;;;;;;;;16.90;100.00;99302.03;5052927;28;916;-58
2023/07/01 04:09:02;;;;;;;;;;;;;;;17.32;100.00;99302.31;5052482;28;794;-58
2023/07/01 04:11:31;;;;;;;;;;;;;;;17.44;100.00;99299.88;5052749;28;1272;-58
2023/07/01 04:13:58;;;;;;;;;;;;;;;17.45;100.00;99307.00;5052778;28;849;-58
2023/07/01 04:16:25;;;;;;;;;;;;;;;17.61;100.00;99309.53;5052860;28;846;-58
2023/07/01 04:18:52;;;;;;;;;;;;;;;17.80;100.00;99309.56;5052592;28;1971;-58
2023/07/01 04:21:21;;;;;;;;;;;;;;;17.84;100.00;99316.59;5052723;28;897;-58
2023/07/01 04:23:48;;;;;;;;;;;;;;;17.84;100.00;99315.81;5052507;28;878;-58
2023/07/01 04:26:16;;;;;;;;;;;;;;;17.85;100.00;99311.78;5052582;28;878;-58
2023/07/01 04:28:43;;;;;;;;;;;;;;;17.92;100.00;99314.25;5052521;28;810;-58
2023/07/01 04:31:11;;;;;;;;;;;;;;;18.11;100.00;99304.63;5052454;28;798;-58
2023/07/01 04:33:38;;;;;;;;;;;;;;;18.32;100.00;99310.53;5052470;28;807;-58
2023/07/01 04:36:05;;;;;;;;;;;;;;;18.49;100.00;99314.53;5052306;28;894;-58
2023/07/01 04:38:33;;;;;;;;;;;;;;;18.63;100.00;99312.38;5052387;28;882;-57
2023/07/01 04:41:01;;;;;;;;;;;;;;;18.67;100.00;99310.16;5052444;28;850;-58
2023/07/01 04:43:29;;;;;;;;;;;;;;;18.78;100.00;99313.28;5052296;28;792;-58
2023/07/01 04:45:57;;;;;;;;;;;;;;;18.90;100.00;99311.53;5052092;28;866;-57
2023/07/01 04:48:24;;;;;;;;;;;;;;;19.14;100.00;99308.81;5052197;28;874;-57
2023/07/01 04:50:51;;;;;;;;;;;;;;;19.33;100.00;99301.06;5052276;28;815;-57
2023/07/01 04:53:18;;;;;;;;;;;;;;;19.51;100.00;99300.97;5051992;28;897;-57
2023/07/01 04:55:46;;;;;;;;;;;;;;;19.67;100.00;99302.59;5052083;28;794;-57
2023/07/01 04:58:13;;;;;;;;;;;;;;;19.86;100.00;99310.91;5052029;28;830;-58
2023/07/01 05:00:40;;;;;;;;;;;;;;;20.02;100.00;99310.47;5051845;28;1935;-57
2023/07/01 05:03:08;;;;;;;;;;;;;;;20.15;100.00;99305.38;5051858;28;854;-57
2023/07/01 05:05:36;;;;;;;;;;;;;;;20.29;100.00;99315.09;5051947;28;845;-57
2023/07/01 05:08:04;;;;;;;;;;;;;;;20.46;100.00;99312.59;5051874;28;880;-57
2023/07/01 05:10:31;;;;;;;;;;;;;;;20.67;100.00;99315.50;5052535;28;909;-57
2023/07/01 05:12:59;;;;;;;;;;;;;;;20.84;100.00;99318.63;5051557;28;1225;-57
2023/07/01 05:15:26;;;;;;;;;;;;;;;20.99;100.00;99320.16;5052021;28;885;-57
2023/07/01 05:17:53;;;;;;;;;;;;;;;21.13;100.00;99317.81;5052054;28;791;-57
2023/07/01 05:20:20;;;;;;;;;;;;;;;21.25;100.00;99316.72;5051289;28;2007;-57
2023/07/01 05:22:47;;;;;;;;;;;;;;;21.37;100.00;99317.66;5051617;28;803;-57
2023/07/01 05:25:16;;;;;;;;;;;;;;;21.52;100.00;99315.59;5051579;28;819;-57
2023/07/01 05:27:43;;;;;;;;;;;;;;;21.71;100.00;99318.91;5051463;28;849;-57
2023/07/01 05:30:11;;;;;;;;;;;;;;;22.05;100.00;99315.75;5051469;28;823;-57
2023/07/01 05:32:36;;;;;;;;;;;;;;;22.39;100.00;99316.94;5051497;28;798;-57
2023/07/01 05:35:04;;;;;;;;;;;;;;;22.98;100.00;99316.47;5051409;28;866;-57
2023/07/01 05:37:32;;;;;;;;;;;;;;;23.49;100.00;99314.00;5051567;28;834;-57
2023/07/01 05:39:59;;;;;;;;;;;;;;;23.93;100.00;99317.59;5051186;28;1882;-57
2023/07/01 05:42:26;;;;;;;;;;;;;;;24.13;100.00;99322.28;5051450;28;842;-57
2023/07/01 05:44:54;;;;;;;;;;;;;;;24.28;100.00;99313.59;5051264;28;814;-57
2023/07/01 05:47:21;;;;;;;;;;;;;;;24.72;100.00;99312.94;5051374;28;843;-57
2023/07/01 05:49:49;;;;;;;;;;;;;;;25.11;100.00;99300.84;5051587;28;873;-57
2023/07/01 05:52:17;;;;;;;;;;;;;;;25.32;100.00;99304.19;5051249;28;893;-57
2023/07/01 05:54:44;;;;;;;;;;;;;;;25.68;100.00;99302.28;5066773;28;904;-55
2023/07/01 05:57:13;;;;;;;;;;;;;;;26.29;100.00;99296.91;5051401;28;873;-57
2023/07/01 05:59:40;;;;;;;;;;;;;;;26.98;100.00;99303.63;5051166;28;1945;-56
2023/07/01 06:02:08;;;;;;;;;;;;;;;27.29;96.16;99302.34;5051266;28;913;-56
2023/07/01 06:04:36;;;;;;;;;;;;;;;27.35;92.85;99293.78;5051476;28;806;-57
2023/07/01 06:07:04;;;;;;;;;;;;;;;27.28;91.60;99295.13;5051183;28;822;-55
2023/07/01 06:09:31;;;;;;;;;;;;;;;27.49;90.36;99293.34;5051241;28;807;-56
2023/07/01 06:11:58;;;;;;;;;;;;;;;27.59;88.60;99293.78;5050871;28;1348;-56
2023/07/01 06:14:26;;;;;;;;;;;;;;;27.82;88.22;99297.09;5051148;28;849;-58
2023/07/01 06:16:53;;;;;;;;;;;;;;;28.08;81.88;99284.44;5051103;28;964;-58
2023/07/01 06:19:21;;;;;;;;;;;;;;;28.55;77.79;99280.41;5050991;28;1976;-58
2023/07/01 06:21:49;;;;;;;;;;;;;;;29.11;74.80;99283.09;5050892;28;814;-55
2023/07/01 06:24:16;;;;;;;;;;;;;;;29.93;72.04;99286.19;5033089;28;1310;-56
2023/07/01 06:26:44;;;;;;;;;;;;;;;30.59;64.98;99295.88;5050835;28;827;-58
2023/07/01 06:29:11;;;;;;;;;;;;;;;30.98;61.40;99301.97;5050857;28;935;-56
2023/07/01 06:31:39;;;;;;;;;;;;;;;31.16;60.68;99300.25;5052469;28;804;-56
2023/07/01 06:34:11;;;;;;;;;;;;;;;31.86;59.18;99299.38;5054702;28;861;-56
2023/07/01 06:36:38;;;;;;;;;;;;;;;32.43;55.65;99296.34;5054829;28;807;-56
2023/07/01 06:39:06;;;;;;;;;;;;;;;32.83;52.23;99297.97;5054687;28;1882;-55
2023/07/01 06:41:33;;;;;;;;;;;;;;;33.24;49.82;99296.09;5054678;28;850;-56
2023/07/01 06:44:04;;;;;;;;;;;;;;;33.36;49.61;99292.25;5054462;28;830;-58
2023/07/01 06:46:31;;;;;;;;;;;;;;;33.67;48.65;99292.22;5054504;28;786;-55
2023/07/01 06:48:59;;;;;;;;;;;;;;;33.94;45.96;99294.59;5054476;28;909;-55
2023/07/01 06:51:26;;;;;;;;;;;;;;;33.92;43.22;99289.44;5054356;28;877;-56
2023/07/01 06:53:53;;;;;;;;;;;;;;;34.23;41.64;99302.94;5054478;28;830;-57
2023/07/01 06:56:20;;;;;;;;;;;;;;;34.40;39.96;99297.28;5054341;28;822;-57
2023/07/01 06:58:48;;;;;;;;;;;;;;;34.80;39.19;99298.56;5054298;28;1886;-57
2023/07/01 07:01:15;;;;;;;;;;;;;;;35.32;38.13;99293.75;5054206;28;843;-57
2023/07/01 07:03:42;;;;;;;;;;;;;;;35.29;35.64;99303.56;5054251;28;858;-57
2023/07/01 07:06:09;;;;;;;;;;;;;;;34.82;35.11;99293.00;5054318;28;778;-57
2023/07/01 07:08:36;;;;;;;;;;;;;;;34.94;34.90;99303.44;5054129;28;907;-58
2023/07/01 07:11:04;;;;;;;;;;;;;;;35.46;34.65;99293.44;5054313;28;990;-57
2023/07/01 07:13:32;;;;;;;;;;;;;;;35.59;34.13;99295.97;5053890;28;1216;-57
2023/07/01 07:15:59;;;;;;;;;;;;;;;35.11;34.20;99287.63;5053960;28;826;-58
2023/07/01 07:18:26;;;;;;;;;;;;;;;35.31;34.25;99285.72;5053898;28;846;-57
2023/07/01 07:20:54;;;;;;;;;;;;;;;35.40;34.25;99279.34;5053564;28;1910;-57
2023/07/01 07:23:21;;;;;;;;;;;;;;;35.83;33.88;99282.13;5053811;28;807;-57
2023/07/01 07:25:48;;;;;;;;;;;;;;;36.31;32.96;99278.84;5053773;28;811;-57
2023/07/01 07:28:16;;;;;;;;;;;;;;;36.45;32.79;99285.75;5053747;28;822;-57
2023/07/01 07:30:44;;;;;;;;;;;;;;;36.67;31.61;99278.16;5053712;28;790;-57
2023/07/01 07:33:11;;;;;;;;;;;;;;;36.59;31.78;99281.13;5053784;28;795;-57
2023/07/01 07:35:38;;;;;;;;;;;;;;;36.44;32.68;99292.09;5053560;28;807;-57
2023/07/01 07:38:06;;;;;;;;;;;;;;;36.39;32.84;99286.00;5053544;28;878;-57
2023/07/01 07:40:33;;;;;;;;;;;;;;;36.69;32.48;99280.44;5053384;28;1949;-58
2023/07/01 07:43:07;;;;;;;;;;;;;;;36.39;32.54;99286.00;5052719;28;833;-57
2023/07/01 07:45:35;;;;;;;;;;;;;;;36.71;32.00;99283.47;5053864;28;842;-57
2023/07/01 07:48:02;;;;;;;;;;;;;;;36.45;32.45;99291.50;5053636;28;818;-57
2023/07/01 07:50:29;;;;;;;;;;;;;;;36.65;32.38;99280.09;5053716;28;810;-56
2023/07/01 07:52:56;;;;;;;;;;;;;;;37.23;31.98;99273.78;5053662;28;834;-57
2023/07/01 07:55:25;;;;;;;;;;;;;;;36.97;31.73;99279.75;5053305;28;882;-57
2023/07/01 07:57:54;;;;;;;;;;;;;;;36.87;31.19;99287.63;5053102;28;859;-58
2023/07/01 08:00:21;;;;;;;;;;;;;;;36.99;31.61;99290.69;5053044;28;1890;-57
2023/07/01 08:02:49;;;;;;;;;;;;;;;36.69;31.41;99281.19;5053094;28;842;-56
2023/07/01 08:05:21;;;;;;;;;;;;;;;37.05;30.55;99273.13;5053114;28;877;-57
2023/07/01 08:07:48;;;;;;;;;;;;;;;36.88;30.58;99274.75;5052919;28;819;-57
2023/07/01 08:10:16;;;;;;;;;;;;;;;37.09;30.46;99259.03;5052822;28;900;-56
2023/07/01 08:12:42;;;;;;;;;;;;;;;36.73;31.16;99275.00;5052682;28;1428;-57
2023/07/01 08:15:09;;;;;;;;;;;;;;;36.80;30.37;99268.34;5053042;28;842;-57
2023/07/01 08:17:36;;;;;;;;;;;;;;;37.31;30.40;99255.00;5053082;28;862;-56
2023/07/01 08:20:04;;;;;;;;;;;;;;;37.59;30.11;99265.06;5052551;28;1910;-57
2023/07/01 08:22:31;;;;;;;;;;;;;;;37.57;30.11;99273.53;5052722;28;937;-57
2023/07/01 08:24:58;;;;;;;;;;;;;;;37.48;29.78;99265.63;5052641;28;850;-57
2023/07/01 08:27:26;;;;;;;;;;;;;;;37.89;29.74;99257.16;5052581;28;925;-56
2023/07/01 08:29:54;;;;;;;;;;;;;;;37.12;29.67;99254.97;5052446;28;911;-57
2023/07/01 08:32:21;;;;;;;;;;;;;;;37.09;29.20;99262.72;5052820;28;827;-58
2023/07/01 08:34:49;;;;;;;;;;;;;;;36.46;30.25;99257.72;5052467;28;803;-57
2023/07/01 08:37:16;;;;;;;;;;;;;;;36.36;30.77;99252.69;5052446;28;814;-57
2023/07/01 08:39:44;;;;;;;;;;;;;;;36.08;31.14;99256.13;5052297;28;1957;-58
2023/07/01 08:42:15;;;;;;;;;;;;;;;35.75;31.67;99256.34;5052291;28;850;-57
2023/07/01 08:44:42;;;;;;;;;;;;;;;34.66;32.33;99247.22;5053172;28;854;-56
2023/07/01 08:47:11;;;;;;;;;;;;;;;33.93;34.25;99245.13;5052518;28;811;-58
2023/07/01 08:49:40;;;;;;;;;;;;;;;34.92;33.33;99242.22;5052235;28;873;-58
2023/07/01 08:52:10;;;;;;;;;;;;;;;35.47;32.06;99244.00;5034342;28;1510;-56
2023/07/01 08:54:39;;;;;;;;;;;;;;;35.52;32.43;99242.97;5051222;28;902;-57
2023/07/01 08:57:09;;;;;;;;;;;;;;;35.77;30.74;99242.91;5051857;28;931;-57
2023/07/01 08:59:36;;;;;;;;;;;;;;;36.04;29.49;99233.56;5067287;28;1938;-56
2023/07/01 09:02:03;;;;;;;;;;;;;;;36.62;28.84;99226.59;5052229;28;806;-54
2023/07/01 09:04:31;;;;;;;;;;;;;;;37.44;28.76;99222.09;5051941;28;822;-56
2023/07/01 09:06:58;;;;;;;;;;;;;;;36.58;29.18;99233.56;5067349;28;913;-57
2023/07/01 09:09:25;;;;;;;;;;;;;;;34.88;31.69;99239.00;5051878;28;881;-56
2023/07/01 09:11:53;;;;;;;;;;;;;;;34.20;32.82;99233.16;5051838;28;1341;-57
2023/07/01 09:14:21;;;;;;;;;;;;;;;32.63;35.60;99240.38;5051744;28;838;-59
2023/07/01 09:16:48;;;;;;;;;;;;;;;33.21;35.43;99232.16;5051727;28;799;-55
2023/07/01 09:19:16;;;;;;;;;;;;;;;34.27;34.24;99229.50;5051579;28;1914;-56
2023/07/01 09:21:44;;;;;;;;;;;;;;;35.00;33.39;99230.69;5051651;28;835;-58
2023/07/01 09:24:12;;;;;;;;;;;;;;;33.97;34.12;99230.41;5051628;28;791;-57
2023/07/01 09:26:39;;;;;;;;;;;;;;;32.57;35.67;99225.47;5051469;28;933;-57
2023/07/01 09:29:12;;;;;;;;;;;;;;;32.29;35.71;99223.50;5051572;28;791;-56
2023/07/01 09:31:46;;;;;;;;;;;;;;;33.38;34.54;99214.34;5051618;28;1158;-56
2023/07/01 09:34:13;;;;;;;;;;;;;;;33.59;34.40;99211.25;5033596;28;875;-57
2023/07/01 09:36:40;;;;;;;;;;;;;;;33.78;34.40;99216.53;5051501;28;822;-57
2023/07/01 09:39:07;;;;;;;;;;;;;;;34.13;33.44;99196.69;5051351;28;1943;-56
2023/07/01 10:12:36;;;;;;;;;;;;;;;32.84;35.61;99179.31;5274021;22;1844;-55
2023/07/01 10:15:05;;;;;;;;;;;;;;;33.22;34.12;99184.22;5095433;28;860;-58
2023/07/01 10:17:46;;;;;;;;;;;;;;;32.24;35.33;99182.34;5095693;28;846;-57
2023/07/01 10:20:34;;;;;;;;;;;;;;;31.50;36.96;99180.94;5095411;28;1905;-57
2023/07/01 10:23:02;;;;;;;;;;;;;;;31.89;36.58;99179.00;5095154;28;1569;-55
2023/07/01 10:25:34;;;;;;;;;;;;;;;32.23;36.36;99183.66;5095212;28;872;-54
2023/07/01 10:28:01;;;;;;;;;;;;;;;32.43;35.61;99184.06;5095798;28;828;-57
2023/07/01 10:30:48;;;;;;;;;;;;;;;32.76;34.67;99176.47;5095392;28;858;-55
2023/07/01 10:33:35;;;;;;;;;;;;;;;33.49;33.64;99168.09;5094895;28;1413;-54
2023/07/01 10:36:02;;;;;;;;;;;;;;;33.30;34.01;99162.06;5095088;28;877;-54
2023/07/01 10:38:31;;;;;;;;;;;;;;;33.39;33.81;99157.84;5094942;28;802;-54
2023/07/01 10:40:59;;;;;;;;;;;;;;;33.98;34.30;99157.38;5095063;28;1941;-56
2023/07/01 10:43:27;;;;;;;;;;;;;;;34.20;33.64;99155.72;5095076;28;797;-55
2023/07/01 10:46:12;;;;;;;;;;;;;;;34.42;33.43;99154.06;5095262;28;917;-57
2023/07/01 10:48:43;;;;;;;;;;;;;;;33.73;33.87;99149.50;5094763;28;825;-55
2023/07/01 10:51:11;;;;;;;;;;;;;;;32.80;34.79;99151.09;5094644;28;877;-58
2023/07/01 10:53:57;;;;;;;;;;;;;;;31.90;36.20;99154.81;5094780;28;806;-57
2023/07/01 10:56:24;;;;;;;;;;;;;;;31.26;36.61;99149.97;5094753;28;870;-58
2023/07/01 10:59:09;;;;;;;;;;;;;;;31.61;36.52;99145.56;5094825;28;1952;-57
2023/07/01 11:01:44;;;;;;;;;;;;;;;32.99;35.78;99141.31;5094540;28;885;-57
2023/07/01 11:04:11;;;;;;;;;;;;;;;34.01;33.18;99138.25;5094442;28;814;-55
2023/07/01 11:06:55;;;;;;;;;;;;;;;34.60;31.47;99134.00;5094469;28;881;-56
2023/07/01 11:09:29;;;;;;;;;;;;;;;35.36;30.36;99135.38;5094376;28;830;-56
2023/07/01 11:11:56;;;;;;;;;;;;;;;34.95;30.42;99129.88;5094331;28;1233;-55
2023/07/01 11:14:32;;;;;;;;;;;;;;;35.69;30.12;99130.16;5094534;28;850;-55
2023/07/01 11:17:18;;;;;;;;;;;;;;;36.59;29.23;99116.31;5094279;28;896;-56
2023/07/01 11:19:46;;;;;;;;;;;;;;;36.78;27.78;99127.13;5093387;28;1983;-56
2023/07/01 11:22:16;;;;;;;;;;;;;;;37.00;28.28;99122.31;5094142;28;885;-57
2023/07/01 11:24:44;;;;;;;;;;;;;;;37.27;26.31;99119.28;5094851;28;810;-57
2023/07/01 11:27:11;;;;;;;;;;;;;;;37.70;25.92;99116.66;5094274;28;1006;-55
2023/07/01 11:29:41;;;;;;;;;;;;;;;37.68;25.00;99118.63;5094471;28;927;-55
2023/07/01 11:32:12;;;;;;;;;;;;;;;37.39;25.33;99102.91;5093905;28;826;-54
2023/07/01 11:34:41;;;;;;;;;;;;;;;37.32;25.06;99103.84;5075785;28;1208;-52
2023/07/01 11:37:08;;;;;;;;;;;;;;;36.55;25.61;99104.47;5075682;28;1184;-56
2023/07/01 11:39:46;;;;;;;;;;;;;;;35.25;27.11;99105.06;5093768;28;1894;-57
2023/07/01 11:42:13;;;;;;;;;;;;;;;34.22;28.67;99101.44;5094083;28;881;-57
2023/07/01 11:44:41;;;;;;;;;;;;;;;33.50;29.51;99095.19;5093868;28;802;-56
2023/07/01 11:47:12;;;;;;;;;;;;;;;34.31;29.60;99083.59;5075878;28;813;-57
2023/07/01 11:49:39;;;;;;;;;;;;;;;36.04;27.99;99077.50;5075406;28;1407;-55
2023/07/01 11:52:07;;;;;;;;;;;;;;;37.08;26.58;99073.94;5093532;28;834;-55
2023/07/01 11:54:39;;;;;;;;;;;;;;;37.25;26.00;99072.28;5093517;28;814;-57
2023/07/01 11:57:14;;;;;;;;;;;;;;;37.19;25.27;99066.84;5093390;28;877;-57
2023/07/01 12:00:03;;;;;;;;;;;;;;;36.65;25.92;99059.25;5093193;28;1890;-57
2023/07/01 12:02:31;;;;;;;;;;;;;;;35.37;26.81;99062.94;5093579;28;896;-57
2023/07/01 12:04:58;;;;;;;;;;;;;;;35.25;26.25;99061.97;5093669;28;845;-57
2023/07/01 12:07:25;;;;;;;;;;;;;;;36.48;25.41;99045.72;5093444;28;833;-57
2023/07/01 12:09:53;;;;;;;;;;;;;;;38.10;23.67;99048.84;5093522;28;913;-57
2023/07/01 12:12:40;;;;;;;;;;;;;;;39.63;22.31;99045.97;5093099;28;1223;-58
2023/07/01 12:15:09;;;;;;;;;;;;;;;40.58;22.39;99040.91;5093202;28;905;-55
2023/07/01 12:17:37;;;;;;;;;;;;;;;41.14;21.85;99031.13;5093257;28;865;-56
2023/07/01 12:20:06;;;;;;;;;;;;;;;40.67;22.24;99033.44;5092879;28;1977;-58
2023/07/01 12:22:35;;;;;;;;;;;;;;;40.68;22.14;99029.91;5093053;28;779;-56
2023/07/01 12:25:02;;;;;;;;;;;;;;;40.41;21.33;99033.38;5092825;28;909;-55
2023/07/01 12:27:29;;;;;;;;;;;;;;;40.98;21.85;99030.19;5092855;28;880;-55
2023/07/01 12:29:56;;;;;;;;;;;;;;;41.40;20.79;99031.13;5092804;28;837;-55
2023/07/01 12:32:24;;;;;;;;;;;;;;;41.78;20.30;99025.94;5074614;28;1183;-56
2023/07/01 12:34:52;;;;;;;;;;;;;;;42.05;20.06;99031.03;5092750;28;868;-55
2023/07/01 12:37:19;;;;;;;;;;;;;;;42.35;19.47;99034.03;5092659;28;938;-54
2023/07/01 12:39:50;;;;;;;;;;;;;;;42.59;19.42;99037.44;5092486;28;1889;-54
2023/07/01 12:42:19;;;;;;;;;;;;;;;42.14;21.08;99027.16;5074597;28;819;-55
2023/07/01 12:44:46;;;;;;;;;;;;;;;41.25;22.65;99029.59;5092806;28;806;-56
2023/07/01 12:47:14;;;;;;;;;;;;;;;40.38;23.89;99026.72;5092500;28;901;-56
2023/07/01 12:49:41;;;;;;;;;;;;;;;40.25;24.04;99017.94;5092743;28;798;-56
2023/07/01 12:52:08;;;;;;;;;;;;;;;39.89;24.50;99020.09;5092403;28;810;-55
2023/07/01 12:54:35;;;;;;;;;;;;;;;38.46;25.73;99018.09;5092514;28;802;-55
2023/07/01 12:57:02;;;;;;;;;;;;;;;36.21;28.14;99016.28;5092308;28;810;-56
2023/07/01 12:59:29;;;;;;;;;;;;;;;35.15;28.75;99013.06;5092179;28;1890;-58
2023/07/01 13:01:56;;;;;;;;;;;;;;;36.20;28.95;99018.41;5092250;28;818;-56
2023/07/01 13:04:25;;;;;;;;;;;;;;;37.01;27.47;99017.28;5092142;28;837;-58
2023/07/01 13:06:53;;;;;;;;;;;;;;;36.98;27.64;99025.00;5092093;28;885;-57
2023/07/01 13:09:28;;;;;;;;;;;;;;;37.08;27.50;99013.47;5092014;28;801;-57
2023/07/01 13:11:55;;;;;;;;;;;;;;;36.29;29.04;99025.53;5092190;28;1344;-57
2023/07/01 13:14:23;;;;;;;;;;;;;;;34.16;30.72;99026.34;5073888;28;1167;-57
2023/07/01 13:16:50;;;;;;;;;;;;;;;33.60;32.72;99025.81;5092045;28;830;-56
2023/07/01 13:19:19;;;;;;;;;;;;;;;34.74;31.29;99024.09;5091862;28;1914;-57
2023/07/01 13:21:47;;;;;;;;;;;;;;;35.44;29.76;99012.47;5091936;28;921;-58
2023/07/01 13:24:15;;;;;;;;;;;;;;;34.76;30.82;99012.78;5091898;28;1052;-57
2023/07/01 13:26:44;;;;;;;;;;;;;;;35.40;30.71;99020.78;5092034;28;858;-57
2023/07/01 13:29:17;;;;;;;;;;;;;;;35.90;29.47;99023.31;5073674;28;1306;-59
2023/07/01 13:31:45;;;;;;;;;;;;;;;35.81;29.88;99018.28;5091793;28;826;-57
2023/07/01 13:34:13;;;;;;;;;;;;;;;36.18;29.55;99018.25;5091765;28;904;-57
2023/07/01 13:36:43;;;;;;;;;;;;;;;36.28;29.31;99019.03;5091940;28;924;-56
2023/07/01 13:39:16;;;;;;;;;;;;;;;36.13;29.99;99017.19;5091642;28;1890;-58